createdAt,value
2018-11-06T05:31:16.980Z,6.80
2018-11-06T05:33:44.972Z,6.63
2018-11-06T05:36:12.944Z,7.10
2018-11-06T05:38:40.887Z,7.00
2018-11-06T05:41:08.853Z,6.20
2018-11-06T05:43:37.615Z,7.07
2018-11-06T05:46:05.559Z,6.40
2018-11-06T05:48:33.561Z,7.00
2018-11-06T05:51:01.736Z,6.47
2018-11-06T05:53:29.809Z,6.60
2018-11-06T05:55:57.711Z,5.90
2018-11-06T05:58:25.681Z,6.47
2018-11-06T06:00:54.012Z,6.63
2018-11-06T06:03:22.043Z,7.40
2018-11-06T06:05:50.066Z,8.30
2018-11-06T06:08:18.138Z,8.43
2018-11-06T06:10:45.631Z,8.67
2018-11-06T06:13:13.591Z,7.77
2018-11-06T06:15:41.535Z,8.03
2018-11-06T06:18:09.447Z,7.40
2018-11-06T06:20:37.473Z,7.07
2018-11-06T06:23:05.632Z,7.30
2018-11-06T06:25:33.572Z,7.37
2018-11-06T06:28:01.488Z,6.70
2018-11-06T06:30:29.548Z,7.43
2018-11-06T06:32:57.555Z,7.27
2018-11-06T06:35:25.489Z,8.70
2018-11-06T06:37:53.541Z,8.43
2018-11-06T06:40:21.515Z,8.93
2018-11-06T06:42:49.456Z,7.87
2018-11-06T06:45:18.551Z,7.60
2018-11-06T06:47:46.480Z,7.53
2018-11-06T06:50:16.552Z,7.70
2018-11-06T06:52:45.027Z,8.60
2018-11-06T06:55:13.906Z,6.60
2018-11-06T06:57:42.809Z,6.67
2018-11-06T07:00:13.256Z,6.70
2018-11-06T07:02:41.465Z,6.90
2018-11-06T07:05:11.233Z,7.10
2018-11-06T07:07:40.328Z,6.93
2018-11-06T07:10:07.784Z,6.33
2018-11-06T07:12:36.467Z,7.50
2018-11-06T07:15:05.342Z,7.40
2018-11-06T07:17:33.312Z,7.73
2018-11-06T07:20:01.273Z,7.43
2018-11-06T07:22:29.250Z,7.20
2018-11-06T07:24:57.231Z,7.10
2018-11-06T07:27:25.307Z,6.20
2018-11-06T07:29:53.347Z,5.70
2018-11-06T07:32:21.272Z,6.30
2018-11-06T07:34:49.442Z,5.77
2018-11-06T07:37:17.260Z,5.63
2018-11-06T07:39:45.192Z,5.63
2018-11-06T07:42:13.133Z,4.93
2018-11-06T07:44:41.268Z,5.27
2018-11-06T16:01:51.880Z,8.17
2018-11-06T16:04:19.896Z,6.53
2018-11-06T16:06:47.807Z,7.20
2018-11-06T16:09:15.820Z,7.40
2018-11-06T16:11:43.888Z,6.60
2018-11-06T16:14:11.820Z,6.70
2018-11-06T16:16:39.828Z,6.63
2018-11-06T16:19:07.769Z,7.63
2018-11-06T16:21:35.749Z,8.30
2018-11-06T16:24:03.769Z,6.43
2018-11-06T16:26:31.663Z,6.40
2018-11-06T16:28:59.659Z,6.70
2018-11-06T16:31:27.586Z,6.80
2018-11-06T16:33:55.564Z,5.80
2018-11-06T16:36:23.600Z,6.67
2018-11-06T16:38:51.525Z,6.53
2018-11-06T16:41:19.520Z,6.80
2018-11-06T16:43:47.448Z,6.83
2018-11-06T16:46:15.514Z,6.40
2018-11-06T16:48:43.512Z,7.13
2018-11-06T16:51:11.557Z,6.27
2018-11-06T16:53:39.449Z,6.37
2018-11-06T16:56:07.773Z,6.53
2018-11-06T16:58:35.679Z,6.00
2018-11-06T17:01:03.739Z,6.50
2018-11-06T17:03:31.633Z,6.63
2018-11-06T17:05:59.569Z,6.87
2018-11-06T17:08:27.491Z,6.13
2018-11-06T17:10:55.423Z,6.63
2018-11-06T17:13:23.432Z,6.00
2018-11-06T17:15:51.351Z,5.37
2018-11-06T17:18:19.308Z,5.63
2018-11-06T17:20:47.240Z,5.90
2018-11-06T17:23:15.191Z,5.70
2018-11-06T17:25:43.208Z,6.00
2018-11-06T17:28:11.069Z,6.33
2018-11-06T17:30:39.070Z,6.53
2018-11-06T17:33:06.976Z,6.17
2018-11-06T17:35:34.925Z,5.90
2018-11-06T17:38:02.904Z,6.10
2018-11-06T17:40:30.887Z,7.13
2018-11-06T17:42:58.816Z,5.80
2018-11-06T17:45:26.954Z,6.30
2018-11-06T17:47:54.888Z,5.90
2018-11-06T17:50:22.862Z,6.37
2018-11-06T17:52:50.796Z,6.73
2018-11-06T17:55:19.762Z,6.63
2018-11-06T17:57:47.627Z,6.50
2018-11-06T18:00:16.721Z,7.17
2018-11-06T18:02:44.893Z,6.80
2018-11-06T18:05:13.875Z,6.90
2018-11-06T18:07:42.459Z,6.20
2018-11-06T18:10:11.966Z,7.23
2018-11-06T18:12:40.616Z,7.07
2018-11-06T18:15:08.535Z,6.50
2018-11-06T18:17:37.221Z,8.63
2018-11-06T18:20:05.668Z,7.47
2018-11-06T18:22:33.628Z,6.30
2018-11-06T18:25:01.613Z,6.40
2018-11-06T18:27:29.568Z,9.13
2018-11-06T18:29:57.608Z,7.30
2018-11-06T18:32:25.617Z,6.47
2018-11-06T18:34:53.500Z,7.03
2018-11-06T18:37:21.512Z,7.20
2018-11-06T18:39:49.537Z,7.20
2018-11-06T18:42:17.462Z,6.80
2018-11-06T18:44:45.461Z,7.00
2018-11-06T18:47:13.477Z,6.30
2018-11-06T18:49:41.471Z,6.90
2018-11-06T18:52:09.335Z,6.80
2018-11-06T18:54:37.248Z,7.07
2018-11-06T18:57:05.198Z,6.93
2018-11-06T18:59:33.147Z,5.87
2018-11-06T19:02:01.095Z,6.80
2018-11-06T19:04:29.144Z,5.33
2018-11-06T19:06:57.060Z,6.70
2018-11-06T19:09:25.004Z,7.23
2018-11-06T19:11:53.025Z,6.00
2018-11-06T19:14:22.125Z,6.10
2018-11-06T19:16:50.165Z,6.70
2018-11-06T19:19:18.128Z,6.90
2018-11-06T19:21:46.201Z,6.20
2018-11-06T19:24:14.337Z,5.90
2018-11-06T19:26:42.240Z,6.40
2018-11-06T19:29:10.147Z,6.40
2018-11-06T19:31:38.105Z,5.57
2018-11-06T19:34:06.207Z,6.90
2018-11-06T19:36:34.259Z,5.77
2018-11-06T19:39:02.160Z,6.03
2018-11-06T19:41:30.114Z,6.50
2018-11-06T19:43:58.065Z,6.20
2018-11-06T19:46:26.000Z,6.23
2018-11-06T19:48:53.920Z,5.93
2018-11-06T19:51:21.872Z,6.23
2018-11-06T19:53:50.025Z,6.20
2018-11-06T19:56:17.762Z,7.20
2018-11-06T19:58:45.728Z,6.50
2018-11-06T20:01:13.759Z,6.90
2018-11-06T20:03:41.670Z,6.80
2018-11-06T20:06:09.658Z,7.07
2018-11-06T20:08:37.532Z,6.73
2018-11-06T20:11:05.473Z,6.90
2018-11-06T20:13:33.384Z,5.77
2018-11-06T20:16:01.871Z,5.90
2018-11-06T20:18:29.840Z,6.10
2018-11-06T20:20:57.755Z,6.80
2018-11-06T20:23:25.800Z,5.70
2018-11-06T20:25:53.698Z,5.80
2018-11-06T20:28:21.684Z,6.43
2018-11-06T20:30:49.588Z,5.90
2018-11-06T20:33:17.613Z,6.43
2018-11-06T20:35:45.586Z,9.97
2018-11-06T20:38:13.480Z,11.27
2018-11-06T20:40:41.479Z,8.33
2018-11-06T20:43:09.450Z,9.53
2018-11-06T20:45:37.399Z,10.10
2018-11-06T20:48:05.384Z,12.43
2018-11-06T20:50:33.303Z,9.20
2018-11-06T20:53:01.463Z,7.63
2018-11-06T20:55:29.306Z,7.23
2018-11-06T20:57:57.320Z,8.47
2018-11-06T21:00:27.612Z,7.97
2018-11-06T21:02:56.700Z,8.50
2018-11-06T21:05:24.640Z,7.00
2018-11-06T21:07:52.740Z,7.33
2018-11-06T21:10:21.956Z,6.80
2018-11-06T21:12:49.899Z,6.40
2018-11-06T21:15:18.226Z,6.43
2018-11-06T21:17:45.807Z,7.30
2018-11-06T21:20:14.526Z,7.70
2018-11-06T21:22:42.444Z,10.80
2018-11-06T21:25:10.741Z,11.73
2018-11-06T21:27:39.367Z,9.80
2018-11-06T21:30:09.189Z,7.60
2018-11-06T21:32:37.553Z,8.23
2018-11-06T21:35:05.940Z,7.67
2018-11-06T21:37:33.978Z,7.97
2018-11-06T21:40:01.878Z,7.93
2018-11-06T21:42:29.888Z,7.37
2018-11-06T21:44:57.858Z,8.07
2018-11-06T21:47:26.009Z,7.93
2018-11-06T21:49:54.101Z,8.03
2018-11-06T21:52:22.046Z,7.93
2018-11-06T21:54:50.060Z,8.77
2018-11-06T21:57:17.957Z,7.80
2018-11-06T21:59:45.868Z,6.90
2018-11-06T22:02:13.847Z,7.07
2018-11-06T22:04:41.764Z,7.00
2018-11-06T22:07:10.824Z,7.17
2018-11-06T22:09:38.749Z,6.83
2018-11-06T22:12:08.079Z,6.97
2018-11-06T22:14:35.976Z,6.80
2018-11-06T22:17:03.913Z,6.80
2018-11-06T22:19:31.828Z,6.90
2018-11-06T22:21:59.789Z,7.07
2018-11-06T22:24:27.703Z,7.37
2018-11-06T22:26:55.627Z,7.50
2018-11-06T22:29:23.550Z,6.93
2018-11-06T22:31:51.711Z,6.50
2018-11-06T22:34:19.509Z,6.70
2018-11-06T22:36:47.456Z,7.03
2018-11-06T22:39:15.367Z,6.97
2018-11-06T22:41:43.304Z,6.87
2018-11-06T22:44:11.316Z,6.40
2018-11-06T22:46:39.283Z,6.73
2018-11-06T22:49:07.245Z,6.10
2018-11-06T22:51:35.236Z,6.60
2018-11-06T22:54:03.177Z,6.90
2018-11-06T22:56:31.468Z,6.70
2018-11-06T22:58:59.460Z,6.27
2018-11-06T23:01:27.479Z,6.40
2018-11-06T23:03:55.607Z,6.70
2018-11-06T23:06:23.726Z,6.20
2018-11-06T23:08:51.479Z,7.33
2018-11-06T23:11:19.515Z,6.30
2018-11-06T23:13:48.645Z,6.37
2018-11-06T23:16:16.715Z,7.80
2018-11-06T23:18:45.155Z,6.80
2018-11-06T23:21:13.382Z,6.40
2018-11-06T23:23:41.362Z,6.00
2018-11-06T23:26:09.660Z,6.23
2018-11-06T23:28:39.812Z,6.93
2018-11-06T23:31:07.823Z,6.33
2018-11-06T23:33:35.842Z,6.10
2018-11-06T23:36:03.756Z,6.00
2018-11-06T23:38:31.688Z,5.30
2018-11-06T23:40:59.650Z,5.20
2018-11-06T23:43:27.624Z,5.93
2018-11-06T23:54:35.557Z,4.90
2018-11-06T23:57:03.639Z,5.30
2018-11-06T23:59:31.616Z,7.10
